createdAt,value
2019-04-23T00:02:18.565Z,3.37
2019-04-23T00:04:46.854Z,2.90
2019-04-23T00:07:39.630Z,3.07
2019-04-23T00:09:57.143Z,2.33
2019-04-23T00:12:38.099Z,2.90
2019-04-23T00:15:08.968Z,2.60
2019-04-23T00:20:06.691Z,3.40
2019-04-23T00:22:45.379Z,3.20
2019-04-23T00:28:06.582Z,3.50
2019-04-23T00:30:36.484Z,3.07
2019-04-23T00:33:07.480Z,2.90
2019-04-23T00:35:35.026Z,3.00
2019-04-23T00:38:05.892Z,2.80
2019-04-23T00:43:09.201Z,2.63
2019-04-23T00:45:39.883Z,3.27
2019-04-23T00:48:15.429Z,2.90
2019-04-23T00:50:44.922Z,3.30
2019-04-23T00:53:10.966Z,2.87
2019-04-23T00:55:46.568Z,2.93
2019-04-23T01:00:47.341Z,3.67
2019-04-23T01:03:17.480Z,3.47
2019-04-23T01:05:50.280Z,4.07
2019-04-23T01:08:20.135Z,3.17
2019-04-23T01:10:56.250Z,3.67
2019-04-23T01:13:31.334Z,2.80
2019-04-23T01:20:57.005Z,3.80
2019-04-23T01:23:37.763Z,3.43
2019-04-23T01:26:21.274Z,3.97
2019-04-23T01:28:59.879Z,3.40
2019-04-23T01:31:28.662Z,3.67
2019-04-23T01:33:55.510Z,3.40
2019-04-23T01:36:25.607Z,4.10
2019-04-23T01:39:03.653Z,3.93
2019-04-23T01:43:55.207Z,4.43
2019-04-23T01:46:35.772Z,3.33
2019-04-23T01:49:20.685Z,4.30
2019-04-23T01:51:44.674Z,3.90
2019-04-23T01:54:01.788Z,3.47
2019-04-23T01:56:36.903Z,4.07
2019-04-23T01:59:05.151Z,3.87
2019-04-23T02:01:43.252Z,4.20
2019-04-23T02:04:14.681Z,4.00
2019-04-23T02:06:38.669Z,3.87
2019-04-23T02:09:12.731Z,3.73
2019-04-23T02:11:37.700Z,4.53
2019-04-23T02:14:14.799Z,4.13
2019-04-23T02:16:45.935Z,4.33
2019-04-23T02:19:19.663Z,5.00
2019-04-23T02:21:56.423Z,4.23
2019-04-23T02:24:20.959Z,4.60
2019-04-23T02:26:48.574Z,4.57
2019-04-23T02:29:39.857Z,4.60
2019-04-23T02:34:42.953Z,4.20
2019-04-23T02:37:00.002Z,5.30
2019-04-23T02:39:46.463Z,4.93
2019-04-23T02:44:36.624Z,4.70
2019-04-23T02:49:48.968Z,4.60
2019-04-23T02:52:27.405Z,4.70
2019-04-23T02:57:05.617Z,5.03
2019-04-23T02:59:57.788Z,4.63
2019-04-23T03:07:22.458Z,5.23
2019-04-23T03:09:55.665Z,5.43
2019-04-23T03:12:26.704Z,4.53
2019-04-23T03:15:11.020Z,4.90
2019-04-23T03:17:51.169Z,4.97
2019-04-23T03:20:21.367Z,5.30
2019-04-23T03:27:56.108Z,5.10
2019-04-23T03:30:42.329Z,5.30
2019-04-23T03:36:17.105Z,5.00
2019-04-23T03:40:34.844Z,5.40
2019-04-23T03:43:06.750Z,5.30
2019-04-23T03:45:58.893Z,5.97
2019-04-23T03:48:06.313Z,5.67
2019-04-23T03:50:39.545Z,5.43
2019-04-23T03:53:13.985Z,5.80
2019-04-23T03:55:45.939Z,4.90
2019-04-23T03:58:18.765Z,5.17
2019-04-23T04:03:42.172Z,6.27
2019-04-23T04:06:11.519Z,5.87
2019-04-23T04:08:18.369Z,5.47
2019-04-23T04:13:30.906Z,5.63
2019-04-23T04:21:01.097Z,5.30
2019-04-23T04:26:00.289Z,5.80
2019-04-23T04:30:58.458Z,5.93
2019-04-23T04:38:44.904Z,5.70
2019-04-23T04:48:46.496Z,5.87
2019-04-23T04:51:19.411Z,5.57
2019-04-23T04:53:50.540Z,6.40
2019-04-23T04:56:21.334Z,5.90
2019-04-23T04:58:47.444Z,5.90
2019-04-23T05:01:12.173Z,6.20
2019-04-23T05:08:52.557Z,6.17
2019-04-23T05:11:17.473Z,5.70
2019-04-23T05:13:57.766Z,6.23
2019-04-23T05:16:15.974Z,5.93
2019-04-23T05:18:59.625Z,6.20
2019-04-23T05:21:20.340Z,7.20
2019-04-23T05:23:54.082Z,6.13
2019-04-23T05:26:26.955Z,6.73
2019-04-23T05:29:06.223Z,7.20
2019-04-23T05:34:00.302Z,5.93
2019-04-23T05:39:12.176Z,6.30
2019-04-23T05:44:02.010Z,6.20
2019-04-23T05:46:33.805Z,6.20
2019-04-23T05:48:59.525Z,5.90
2019-04-23T05:51:40.124Z,6.87
2019-04-23T05:56:36.880Z,6.47
2019-04-23T05:59:08.773Z,6.87
2019-04-23T06:04:14.081Z,5.90
2019-04-23T06:06:45.245Z,6.27
2019-04-23T06:11:55.528Z,6.30
2019-04-23T06:14:11.425Z,6.60
2019-04-23T06:16:41.510Z,6.47
2019-04-23T06:19:14.119Z,6.63
2019-04-23T06:21:56.205Z,6.70
2019-04-23T06:24:21.765Z,6.40
2019-04-23T06:26:45.494Z,6.83
2019-04-23T06:29:22.518Z,6.13
2019-04-23T06:39:15.956Z,6.60
2019-04-23T06:41:52.721Z,6.50
2019-04-23T06:44:25.490Z,6.43
2019-04-23T06:46:56.948Z,6.37
2019-04-23T06:49:27.101Z,6.33
2019-04-23T06:52:07.070Z,6.47
2019-04-23T06:57:11.872Z,6.60
2019-04-23T07:02:09.959Z,6.53
2019-04-23T07:04:34.295Z,6.27
2019-04-23T07:07:25.537Z,5.87
2019-04-23T07:09:26.018Z,5.90
2019-04-23T07:12:05.242Z,5.90
2019-04-23T07:14:44.285Z,6.10
2019-04-23T07:17:04.238Z,6.23
2019-04-23T07:22:12.916Z,6.27
2019-04-23T07:24:43.667Z,5.90
2019-04-23T07:27:11.739Z,5.87
2019-04-23T07:29:41.698Z,5.10
2019-04-23T07:32:11.858Z,6.40
2019-04-23T07:34:49.492Z,6.20
2019-04-23T07:37:15.582Z,6.50
2019-04-23T07:40:11.256Z,6.57
2019-04-23T07:42:42.103Z,6.47
2019-04-23T07:45:27.994Z,5.67
2019-04-23T07:48:10.870Z,5.10
2019-04-23T08:05:57.436Z,5.90
2019-04-23T08:08:11.680Z,6.20
2019-04-23T08:11:30.774Z,5.63
2019-04-23T08:13:52.359Z,6.27
2019-04-23T08:16:23.374Z,5.87
2019-04-23T08:18:49.773Z,6.10
2019-04-23T08:21:15.144Z,5.87
2019-04-23T08:23:56.968Z,5.90
2019-04-23T08:26:52.073Z,5.80
2019-04-23T08:29:13.931Z,6.40
2019-04-23T08:31:52.005Z,6.30
2019-04-23T08:34:23.900Z,6.10
2019-04-23T08:36:51.849Z,6.20
2019-04-23T08:39:23.176Z,5.60
2019-04-23T08:44:27.317Z,6.00
2019-04-23T08:49:45.260Z,6.20
2019-04-23T08:54:56.806Z,6.00
2019-04-23T08:57:08.855Z,6.50
2019-04-23T09:07:16.534Z,6.80
2019-04-23T09:12:19.612Z,7.03
2019-04-23T09:14:44.992Z,6.33
2019-04-23T09:17:20.809Z,6.53
2019-04-23T09:20:06.038Z,6.70
2019-04-23T09:22:22.377Z,6.60
2019-04-23T09:27:38.145Z,6.20
2019-04-23T09:30:00.771Z,6.40
2019-04-23T09:35:06.239Z,6.50
2019-04-23T09:37:39.077Z,6.57
2019-04-23T09:40:13.998Z,6.60
2019-04-23T09:43:00.604Z,6.33
2019-04-23T09:45:29.976Z,7.07
2019-04-23T09:48:04.805Z,6.80
2019-04-23T09:50:29.768Z,6.83
2019-04-23T09:55:38.801Z,6.40
2019-04-23T10:03:01.530Z,6.80
2019-04-23T10:05:29.132Z,6.20
2019-04-23T10:07:54.392Z,5.60
2019-04-23T10:10:18.444Z,6.00
2019-04-23T10:12:48.212Z,5.70
2019-04-23T10:15:25.026Z,5.90
2019-04-23T10:17:51.944Z,5.60
2019-04-23T10:20:22.539Z,5.47
2019-04-23T10:22:52.593Z,5.90
2019-04-23T10:25:22.747Z,6.93
2019-04-23T10:27:58.544Z,5.40
2019-04-23T10:30:23.769Z,5.57
2019-04-23T10:32:55.726Z,5.43
2019-04-23T10:35:37.359Z,6.03
2019-04-23T10:38:03.734Z,5.60
2019-04-23T10:40:32.564Z,5.83
2019-04-23T10:43:01.230Z,5.63
2019-04-23T10:46:07.961Z,5.97
2019-04-23T10:48:49.933Z,6.10
2019-04-23T10:51:33.801Z,5.80
2019-04-23T10:54:03.101Z,9.13
2019-04-23T10:56:34.758Z,6.00
2019-04-23T10:58:54.465Z,6.30
2019-04-23T11:01:39.151Z,6.00
2019-04-23T11:06:42.763Z,6.20
2019-04-23T11:09:27.759Z,6.00
2019-04-23T11:11:48.327Z,6.47
2019-04-23T11:14:23.157Z,5.80
2019-04-23T11:16:56.575Z,7.27
2019-04-23T11:19:23.598Z,5.20
2019-04-23T11:21:58.477Z,4.93
2019-04-23T11:24:32.509Z,6.23
2019-04-23T11:26:51.533Z,6.20
2019-04-23T11:29:27.959Z,5.80
2019-04-23T11:32:13.405Z,5.60
2019-04-23T11:37:12.386Z,5.83
2019-04-23T11:38:06.994Z,6.20
2019-04-23T11:39:31.140Z,5.77
2019-04-23T11:42:05.174Z,5.70
2019-04-23T11:44:52.953Z,5.77
2019-04-23T11:47:04.247Z,5.53
2019-04-23T11:50:13.867Z,5.90
2019-04-23T11:52:07.925Z,5.07
2019-04-23T11:54:36.045Z,5.50
2019-04-23T11:59:47.209Z,5.40
2019-04-23T12:02:12.020Z,5.57
2019-04-23T12:05:05.484Z,6.20
2019-04-23T12:07:32.825Z,5.53
2019-04-23T12:10:06.118Z,5.23
2019-04-23T12:15:03.558Z,5.60
2019-04-23T12:17:51.203Z,5.10
2019-04-23T12:20:27.158Z,5.40
2019-04-23T12:23:08.960Z,5.73
2019-04-23T12:25:27.541Z,5.70
2019-04-23T12:27:42.186Z,5.43
2019-04-23T12:30:33.923Z,5.23
2019-04-23T12:35:25.850Z,5.37
2019-04-23T12:38:08.941Z,5.30
2019-04-23T12:43:12.705Z,4.90
2019-04-23T12:48:15.229Z,4.83
2019-04-23T12:50:50.101Z,5.53
2019-04-23T12:55:43.787Z,5.13
2019-04-23T12:58:17.864Z,5.50
2019-04-23T13:03:16.757Z,5.00
2019-04-23T13:05:35.939Z,5.70
2019-04-23T13:08:26.894Z,5.30
2019-04-23T13:10:45.351Z,5.20
2019-04-23T13:13:23.514Z,5.57
2019-04-23T13:15:48.099Z,5.30
2019-04-23T13:18:23.896Z,6.00
2019-04-23T13:20:44.425Z,4.80
2019-04-23T13:26:06.118Z,5.73
2019-04-23T13:28:40.205Z,5.50
2019-04-23T13:33:44.281Z,5.90
2019-04-23T13:36:18.864Z,4.63
2019-04-23T13:38:45.140Z,5.50
2019-04-23T13:41:23.483Z,8.23
2019-04-23T13:46:32.995Z,5.50
2019-04-23T13:48:41.922Z,6.00
2019-04-23T13:51:20.803Z,4.90
2019-04-23T13:56:24.786Z,5.63
2019-04-23T13:58:54.908Z,4.93
2019-04-23T14:04:11.948Z,6.00
2019-04-23T14:06:35.002Z,6.23
2019-04-23T14:16:48.358Z,6.00
2019-04-23T14:19:02.457Z,6.50
2019-04-23T14:21:30.884Z,6.10
2019-04-23T14:24:22.826Z,5.90
2019-04-23T14:26:38.312Z,6.03
2019-04-23T14:29:04.077Z,5.63
2019-04-23T14:31:36.830Z,5.33
2019-04-23T14:36:42.543Z,6.03
2019-04-23T14:39:15.746Z,5.50
2019-04-23T14:41:45.006Z,5.90
2019-04-23T14:44:12.865Z,6.00
2019-04-23T14:46:49.861Z,5.73
2019-04-23T14:52:00.421Z,5.63
2019-04-23T14:55:19.928Z,5.37
2019-04-23T14:57:24.762Z,5.30
2019-04-23T14:59:34.680Z,5.80
2019-04-23T15:02:12.505Z,6.03
2019-04-23T15:04:39.796Z,5.37
2019-04-23T15:07:18.842Z,5.10
2019-04-23T15:10:08.534Z,5.47
2019-04-23T15:12:30.430Z,5.77
2019-04-23T15:14:59.922Z,5.60
2019-04-23T15:17:28.858Z,6.00
2019-04-23T15:20:15.316Z,5.97
2019-04-23T15:25:25.720Z,4.80
2019-04-23T15:29:58.298Z,5.13
2019-04-23T15:32:45.300Z,5.83
2019-04-23T15:35:25.356Z,5.63
2019-04-23T15:37:58.360Z,5.20
2019-04-23T15:50:15.737Z,5.33
2019-04-23T15:52:54.943Z,5.23
2019-04-23T15:55:12.204Z,6.30
2019-04-23T15:58:01.024Z,5.80
2019-04-23T16:00:12.777Z,5.80
2019-04-23T16:02:20.232Z,6.07
2019-04-23T16:04:49.416Z,5.50
2019-04-23T16:07:38.957Z,6.10
2019-04-23T16:12:51.914Z,5.80
2019-04-23T16:15:35.811Z,5.70
2019-04-23T16:18:15.765Z,6.07
2019-04-23T16:20:49.171Z,5.20
2019-04-23T16:23:05.717Z,5.50
2019-04-23T16:25:36.334Z,6.07
2019-04-23T16:30:48.114Z,5.60
2019-04-23T16:33:11.119Z,6.23
2019-04-23T16:35:58.510Z,5.50
2019-04-23T16:38:36.312Z,6.90
2019-04-23T16:46:06.152Z,5.40
2019-04-23T16:56:11.490Z,5.83
2019-04-23T16:58:55.105Z,5.40
2019-04-23T17:01:07.251Z,4.93
2019-04-23T17:03:40.162Z,5.27
2019-04-23T17:06:10.544Z,5.80
2019-04-23T17:08:53.899Z,6.03
2019-04-23T17:11:15.178Z,5.03
2019-04-23T17:13:38.022Z,5.90
2019-04-23T17:16:15.198Z,5.73
2019-04-23T17:18:48.822Z,5.60
2019-04-23T17:21:18.149Z,6.13
2019-04-23T17:24:07.922Z,5.90
2019-04-23T17:26:19.042Z,5.90
2019-04-23T17:28:47.513Z,5.60
2019-04-23T17:31:32.801Z,5.70
2019-04-23T17:36:24.637Z,5.77
2019-04-23T17:39:08.168Z,6.50
2019-04-23T17:41:31.326Z,6.63
2019-04-23T17:46:34.158Z,5.90
2019-04-23T17:49:10.872Z,7.10
2019-04-23T17:51:35.069Z,5.20
2019-04-23T17:54:19.480Z,5.63
2019-04-23T17:59:20.583Z,6.10
2019-04-23T18:01:57.200Z,5.20
2019-04-23T18:04:20.577Z,6.03
2019-04-23T18:09:18.445Z,5.97
2019-04-23T18:14:13.229Z,6.20
2019-04-23T18:16:55.991Z,5.33
2019-04-23T18:19:16.598Z,6.10
2019-04-23T18:22:15.532Z,6.00
2019-04-23T18:25:05.755Z,6.67
2019-04-23T18:27:31.400Z,6.60
2019-04-23T18:37:56.381Z,6.70
2019-04-23T18:40:36.744Z,6.23
2019-04-23T18:43:21.530Z,5.93
2019-04-23T18:45:46.725Z,6.67
2019-04-23T18:48:10.020Z,6.10
2019-04-23T18:50:53.703Z,5.80
2019-04-23T18:53:27.969Z,5.90
2019-04-23T18:56:03.110Z,6.60
2019-04-23T18:58:10.538Z,6.17
2019-04-23T19:01:00.111Z,6.60
2019-04-23T19:03:38.918Z,6.40
2019-04-23T19:06:06.985Z,6.90
2019-04-23T19:09:03.186Z,6.33
2019-04-23T19:14:07.988Z,7.13
2019-04-23T19:16:54.896Z,6.83
2019-04-23T19:19:11.728Z,7.60
2019-04-23T19:22:07.003Z,6.93
2019-04-23T19:24:15.856Z,7.37
2019-04-23T19:27:03.315Z,8.30
2019-04-23T19:29:21.194Z,8.53
2019-04-23T19:31:54.071Z,7.20
2019-04-23T19:34:34.069Z,7.27
2019-04-23T19:41:59.372Z,8.03
2019-04-23T19:44:28.763Z,7.57
2019-04-23T19:49:31.653Z,7.73
2019-04-23T19:51:57.702Z,7.63
2019-04-23T19:54:34.015Z,7.30
2019-04-23T19:56:56.796Z,7.07
2019-04-23T19:59:43.193Z,7.43
2019-04-23T20:02:00.226Z,7.40
2019-04-23T20:04:39.426Z,7.30
2019-04-23T20:07:12.347Z,7.73
2019-04-23T20:09:43.142Z,7.93
2019-04-23T20:14:41.784Z,6.77
2019-04-23T20:17:23.455Z,7.63
2019-04-23T20:19:44.938Z,6.40
2019-04-23T20:27:13.892Z,7.60
2019-04-23T20:30:15.832Z,7.50
2019-04-23T20:38:02.277Z,6.87
2019-04-23T20:40:11.478Z,7.23
2019-04-23T20:42:34.750Z,7.70
2019-04-23T20:45:08.363Z,6.93
2019-04-23T20:47:37.137Z,12.20
2019-04-23T20:49:58.458Z,8.00
2019-04-23T20:52:33.906Z,6.60
2019-04-23T20:55:08.325Z,7.53
2019-04-23T21:00:12.080Z,7.50
2019-04-23T21:10:37.446Z,7.20
2019-04-23T21:18:15.402Z,7.03
2019-04-23T21:20:37.034Z,7.40
2019-04-23T21:23:08.952Z,7.10
2019-04-23T21:28:26.691Z,7.03
2019-04-23T21:33:30.094Z,5.95
2019-04-23T21:36:15.631Z,6.80
2019-04-23T21:41:29.885Z,6.60
2019-04-23T21:46:20.463Z,7.50
2019-04-23T21:49:14.933Z,7.40
2019-04-23T21:53:51.789Z,7.80
2019-04-23T21:56:23.890Z,6.60
2019-04-23T21:58:59.932Z,7.23
2019-04-23T22:01:33.273Z,7.10
2019-04-23T22:06:41.309Z,7.63
2019-04-23T22:09:08.798Z,7.67
2019-04-23T22:14:10.239Z,7.37
2019-04-23T22:16:40.925Z,6.60
2019-04-23T22:21:45.344Z,7.47
2019-04-23T22:24:07.258Z,6.40
2019-04-23T22:29:14.246Z,7.00
2019-04-23T22:36:48.265Z,6.13
2019-04-23T22:39:09.712Z,6.50
2019-04-23T22:41:50.428Z,6.70
2019-04-23T22:44:32.489Z,6.73
2019-04-23T22:46:52.466Z,7.10
2019-04-23T22:49:38.891Z,7.00
2019-04-23T22:52:06.001Z,6.53
2019-04-23T22:54:31.866Z,6.27
2019-04-23T22:56:54.561Z,6.30
2019-04-23T23:02:41.654Z,7.17
2019-04-23T23:04:54.571Z,7.50
2019-04-23T23:07:20.176Z,6.27
2019-04-23T23:09:54.248Z,7.23
2019-04-23T23:12:22.988Z,6.83
2019-04-23T23:14:54.181Z,6.30
2019-04-23T23:17:24.116Z,6.40
2019-04-23T23:20:03.537Z,6.87
2019-04-23T23:22:18.351Z,6.87
2019-04-23T23:24:57.198Z,7.53
2019-04-23T23:27:23.727Z,6.63
2019-04-23T23:30:05.251Z,6.80
2019-04-23T23:37:28.512Z,6.70
2019-04-23T23:40:11.317Z,6.83
2019-04-23T23:42:34.712Z,7.13
2019-04-23T23:45:14.474Z,7.20
2019-04-23T23:47:37.630Z,6.63
2019-04-23T23:50:15.946Z,6.73
2019-04-23T23:52:40.985Z,7.63
2019-04-23T23:55:12.726Z,6.80
2019-04-23T23:57:30.483Z,7.40
